KHQM/HQM METAR and TAF weather

Enter ICAO airport designator
Station Type Date Time Source
KHQM METAR 2019/12/06 08:53 UTC NOAA

KHQM 060853Z AUTO 09009KT 10SM OVC075 08/08 A2991 RMK AO2 SLP133 T00830078 58008 $


Station Type Date Time Source
KHQM Decoded METAR 2019/12/06 08:53 UTC NOAA

HOQUIAM BOWERMAN AIRPORT, WA, United States (KHQM) 46-58N 123-56W 7M
Dec 06, 2019 - 03:53 AM EST / 2019.12.06 0853 UTC
Wind: from the E (090 degrees) at 10 MPH (9 KT):0
Visibility: 10 mile(s):0
Sky conditions: overcast
Temperature: 46.9 F (8.3 C)
Dew Point: 46.0 F (7.8 C)
Relative Humidity: 96%
Pressure (altimeter): 29.91 in. Hg (1012 hPa)
Pressure tendency: 0.02 inches (0.8 hPa) lower than three hours ago
ob: KHQM 060853Z AUTO 09009KT 10SM OVC075 08/08 A2991 RMK AO2 SLP133 T00830078 58008
cycle: 9

Station Type Date Time Source
KHQM TAF 2019/12/06 06:22 UTC NOAA

TAF KHQM 060520Z 0606/0706 08009KT P6SM OVC050
FM062000 06008KT P6SM OVC030
FM062200 07008KT 4SM -RA OVC015

Example: see airport list